Archival Weather

Fukuoka

Fukuoka, Japan (RJFF)

Report from: Tuesday, August 16, 2022 4:00 AM JST
Current time: Sunday, November 27, 2022 7:00 PM JST

Current weather
Weather history
Weather forecast

Temperature30.0°C (86.0°F)
Heat index34.2°C (93.6°F)
Dew point23.0°C (73.4°F)
Winds 8 kts (4.1 m/s, 9.2 mph) Vrb
Winds variableWinds variable from South-Southeast (160°) to West-Southwest (250°)
Visibility6.2 mi. (10 km)
Clouds Few clouds 3,700 ft. (1,128 m)
Scattered clouds 8,000 ft. (2,438 m)
Altimeter29.71 in.Hg (1006 mB)
Relative humidity66 %
Density altitude2,340 ft. (713 m)
Remarks Fully automated report
No significant changes expected in the next two hours
Towering cumulus clouds observed south moving northeast
Flight conditions Visual Meteorological Conditions
Raw dataRJFF 151900Z AUTO 21008KT 160V250 9999 FEW037 SCT080 //////TCU 30/23 Q1006 NOSIG RMK A2971 TCU 40KM S MOV NE
An error has occurred. This application may no longer respond until reloaded. Reload 🗙